Time;durP1;ratioP1;P1;durP2;ratioP2;P2;SDS_P1;SDS_P2;PMS_P1;PMS_P2;Temp;Humidity;BMP_temperature;BMP_pressure;BME280_temperature;BME280_humidity;BME280_pressure;Samples;Min_cycle;Max_cycle;Signal;HPM_P1;HPM_P2
2021/12/22 00:02:19;;;;;;;;;;;51.90;2227.20;;;;;;5017428;28;20359;-82
2021/12/22 00:04:47;;;;;;;;;;;51.90;2227.20;;;;;;5012065;28;19959;-81
2021/12/22 00:07:13;;;;;;;;;;;52.00;2227.20;;;;;;5042151;28;20345;-80
2021/12/22 00:09:39;;;;;;;;;;;51.90;2227.20;;;;;;5045024;28;19944;-81
2021/12/22 00:12:05;;;;;;;;;;;52.10;2227.20;;;;;;5026876;28;19948;-81
2021/12/22 00:14:30;;;;;;;;;;;52.10;2227.20;;;;;;5054190;28;20278;-79
2021/12/22 00:16:57;;;;;;;;;;;52.00;2227.20;;;;;;5036123;28;20114;-81
2021/12/22 00:19:23;;;;;;;;;;;52.00;2227.20;;;;;;5054248;28;19999;-81
2021/12/22 00:21:49;;;;;;;;;;;52.00;2227.20;;;;;;5053773;28;19962;-80
2021/12/22 00:24:14;;;;;;;;;;;51.60;2227.20;;;;;;5045727;28;19917;-81
2021/12/22 00:26:40;;;;;;;;;;;51.60;2227.20;;;;;;5037193;28;20346;-81
2021/12/22 00:29:07;;;;;;;;;;;51.70;2227.20;;;;;;5053750;28;19905;-81
2021/12/22 00:31:40;;;;;;;;;;;51.70;2227.20;;;;;;5053580;28;19912;-81
2021/12/22 00:34:14;;;;;;;;;;;51.80;2227.20;;;;;;5051670;28;19908;-82
2021/12/22 00:36:40;;;;;;;;;;;52.00;2227.20;;;;;;5053942;28;19904;-80
2021/12/22 00:39:05;;;;;;;;;;;51.90;2227.20;;;;;;5028728;28;20011;-81
2021/12/22 00:41:31;;;;;;;;;;;52.00;2227.20;;;;;;5046816;28;19919;-80
2021/12/22 00:43:57;;;;;;;;;;;52.10;2227.20;;;;;;5053241;28;19976;-78
2021/12/22 00:46:22;;;;;;;;;;;52.10;2227.20;;;;;;5053599;28;19911;-82
2021/12/22 00:48:48;;;;;;;;;;;52.10;2227.20;;;;;;5053062;28;19905;-77
2021/12/22 00:51:13;;;;;;;;;;;76.80;2227.20;;;;;;5052798;28;19951;-78
2021/12/22 00:53:39;;;;;;;;;;;76.80;2227.20;;;;;;5052823;28;20342;-80
2021/12/22 00:56:06;;;;;;;;;;;76.90;2227.20;;;;;;5053281;28;19967;-79
2021/12/22 00:58:32;;;;;;;;;;;52.10;2227.20;;;;;;5035261;28;20275;-81
2021/12/22 01:00:57;;;;;;;;;;;76.90;2227.20;;;;;;5053169;28;19959;-81
2021/12/22 01:03:23;;;;;;;;;;;76.80;2227.20;;;;;;5053358;28;20366;-79
2021/12/22 01:05:49;;;;;;;;;;;52.00;2227.20;;;;;;5035296;28;19905;-81
2021/12/22 01:08:15;;;;;;;;;;;51.90;2227.20;;;;;;5053333;28;20311;-82
2021/12/22 01:10:41;;;;;;;;;;;52.00;2227.20;;;;;;5035098;28;19970;-81
2021/12/22 01:13:07;;;;;;;;;;;52.00;2227.20;;;;;;5052480;28;19960;-78
2021/12/22 01:15:34;;;;;;;;;;;52.00;2227.20;;;;;;5035331;28;19916;-82
2021/12/22 01:18:08;;;;;;;;;;;52.00;2227.20;;;;;;5052585;28;20387;-81
2021/12/22 01:20:54;;;;;;;;;;;52.10;2227.20;;;;;;5052569;28;19921;-77
2021/12/22 01:23:20;;;;;;;;;;;52.00;2227.20;;;;;;5051916;28;19994;-81
2021/12/22 01:25:48;;;;;;;;;;;51.90;2227.20;;;;;;5052854;28;20366;-81
2021/12/22 01:28:14;;;;;;;;;;;51.90;2227.20;;;;;;5052894;28;19951;-80
2021/12/22 01:30:44;;;;;;;;;;;51.80;2227.20;;;;;;5052331;28;19904;-80
2021/12/22 01:33:10;;;;;;;;;;;52.00;2227.20;;;;;;5035454;28;19919;-81
2021/12/22 01:35:37;;;;;;;;;;;52.00;2227.20;;;;;;5030973;28;19909;-81
2021/12/22 01:38:03;;;;;;;;;;;52.10;2227.20;;;;;;5047067;28;19912;-80
2021/12/22 01:40:30;;;;;;;;;;;52.10;2227.20;;;;;;5052449;28;19927;-81
2021/12/22 01:42:57;;;;;;;;;;;52.00;2227.20;;;;;;5039307;28;19947;-82
2021/12/22 01:45:47;;;;;;;;;;;52.10;2227.20;;;;;;5035836;28;19927;-80
2021/12/22 01:51:03;;;;;;;;;;;51.30;2227.20;;;;;;5044003;28;19912;-81
2021/12/22 01:53:35;;;;;;;;;;;26.40;2201.60;;;;;;5046342;28;19911;-81
2021/12/22 01:56:27;;;;;;;;;;;25.70;2201.60;;;;;;5048915;28;19955;-77
2021/12/22 01:58:50;;;;;;;;;;;25.90;2201.60;;;;;;5037960;28;19904;-81
2021/12/22 02:01:16;;;;;;;;;;;26.30;2201.60;;;;;;5037944;28;19920;-82
2021/12/22 02:03:43;;;;;;;;;;;26.40;2201.60;;;;;;5035629;28;19905;-82
2021/12/22 02:06:09;;;;;;;;;;;26.40;2201.60;;;;;;5050884;28;20364;-79
2021/12/22 02:08:38;;;;;;;;;;;26.50;2201.60;;;;;;5052833;28;19905;-81
2021/12/22 02:11:04;;;;;;;;;;;26.50;2201.60;;;;;;5052953;28;19944;-81
2021/12/22 02:13:35;;;;;;;;;;;26.30;2201.60;;;;;;5052602;28;20004;-81
2021/12/22 02:16:06;;;;;;;;;;;26.20;2201.60;;;;;;5048294;28;19924;-80
2021/12/22 02:18:33;;;;;;;;;;;26.20;2201.60;;;;;;5055498;28;19904;-82
2021/12/22 02:20:58;;;;;;;;;;;26.40;2201.60;;;;;;5052624;28;19959;-82
2021/12/22 02:23:24;;;;;;;;;;;26.30;2201.60;;;;;;5038408;28;19940;-82
2021/12/22 02:25:55;;;;;;;;;;;26.50;2201.60;;;;;;5051492;28;19912;-81
2021/12/22 02:28:25;;;;;;;;;;;51.30;2227.20;;;;;;5049213;28;19905;-81
2021/12/22 02:30:52;;;;;;;;;;;51.30;2227.20;;;;;;5041562;28;19912;-79
2021/12/22 02:36:05;;;;;;;;;;;26.40;2201.60;;;;;;5052763;28;20391;-81
2021/12/22 02:38:42;;;;;;;;;;;26.50;2201.60;;;;;;5035768;28;19999;-79
2021/12/22 02:41:10;;;;;;;;;;;51.20;2227.20;;;;;;5047024;28;19913;-80
2021/12/22 02:43:43;;;;;;;;;;;51.40;2227.20;;;;;;5034056;28;19912;-80
2021/12/22 02:46:10;;;;;;;;;;;51.50;2227.20;;;;;;5050828;28;19934;-81
2021/12/22 02:48:35;;;;;;;;;;;51.60;2227.20;;;;;;5051519;28;19909;-81
2021/12/22 02:51:02;;;;;;;;;;;51.60;2227.20;;;;;;5052311;28;19912;-81
2021/12/22 02:53:38;;;;;;;;;;;51.60;2227.20;;;;;;5046870;28;19905;-81
2021/12/22 02:56:32;;;;;;;;;;;51.70;2227.20;;;;;;5055392;28;20047;-80
2021/12/22 03:09:15;;;;;;;;;;;51.80;2227.20;;;;;;5013394;28;19976;-80
2021/12/22 03:11:41;;;;;;;;;;;51.80;2227.20;;;;;;5008450;28;19926;-81
2021/12/22 03:14:07;;;;;;;;;;;51.80;2227.20;;;;;;4993467;28;19909;-81
2021/12/22 03:16:32;;;;;;;;;;;51.80;2227.20;;;;;;4994346;28;19909;-81
2021/12/22 03:18:58;;;;;;;;;;;51.80;2227.20;;;;;;4999120;28;19906;-81
2021/12/22 03:21:23;;;;;;;;;;;51.70;2227.20;;;;;;4996462;28;20426;-82
2021/12/22 03:23:52;;;;;;;;;;;51.70;2227.20;;;;;;4993708;28;19909;-80
2021/12/22 03:26:18;;;;;;;;;;;51.70;2227.20;;;;;;4993931;28;19914;-81
2021/12/22 03:28:45;;;;;;;;;;;51.50;2227.20;;;;;;4993936;28;20264;-80
2021/12/22 03:31:11;;;;;;;;;;;51.60;2227.20;;;;;;4993746;28;20001;-81
2021/12/22 03:33:36;;;;;;;;;;;51.30;2227.20;;;;;;4993752;28;19969;-82
2021/12/22 03:36:03;;;;;;;;;;;51.30;2227.20;;;;;;4994082;28;20004;-82
2021/12/22 03:38:30;;;;;;;;;;;51.20;2227.20;;;;;;4993291;28;20348;-80
2021/12/22 03:40:56;;;;;;;;;;;51.20;2227.20;;;;;;4993572;28;19985;-80
2021/12/22 03:43:21;;;;;;;;;;;26.50;2201.60;;;;;;4993455;28;19949;-79
2021/12/22 03:45:47;;;;;;;;;;;51.20;2227.20;;;;;;5006701;28;19912;-80
2021/12/22 03:48:16;;;;;;;;;;;51.30;2227.20;;;;;;5034784;28;19905;-77
2021/12/22 03:50:42;;;;;;;;;;;51.20;2227.20;;;;;;5034766;28;19916;-82
2021/12/22 03:53:07;;;;;;;;;;;26.50;2201.60;;;;;;5034452;28;19909;-81
2021/12/22 03:55:33;;;;;;;;;;;26.50;2201.60;;;;;;5034471;28;20351;-79
2021/12/22 03:57:58;;;;;;;;;;;26.50;2201.60;;;;;;5034727;28;19912;-82
2021/12/22 04:00:24;;;;;;;;;;;51.20;2227.20;;;;;;5016271;28;19921;-81
2021/12/22 04:02:50;;;;;;;;;;;51.20;2227.20;;;;;;5034479;28;19995;-81
2021/12/22 04:05:17;;;;;;;;;;;51.30;2227.20;;;;;;5034538;28;19911;-81
2021/12/22 04:07:43;;;;;;;;;;;51.40;2227.20;;;;;;5034608;28;19905;-81
2021/12/22 04:10:19;;;;;;;;;;;51.50;2227.20;;;;;;5034281;28;19932;-81
2021/12/22 04:12:46;;;;;;;;;;;51.60;2227.20;;;;;;5039847;28;19917;-79
2021/12/22 04:15:12;;;;;;;;;;;51.40;2227.20;;;;;;5034710;28;19908;-81
2021/12/22 04:17:37;;;;;;;;;;;51.40;2227.20;;;;;;5034669;28;20047;-82
2021/12/22 04:20:03;;;;;;;;;;;51.50;2227.20;;;;;;5034311;28;20377;-81
2021/12/22 04:22:28;;;;;;;;;;;51.60;2227.20;;;;;;5016507;28;19916;-81
2021/12/22 04:24:54;;;;;;;;;;;51.60;2227.20;;;;;;5034402;28;19909;-80
2021/12/22 04:27:20;;;;;;;;;;;51.30;2227.20;;;;;;5034025;28;20306;-81
2021/12/22 04:29:45;;;;;;;;;;;51.40;2227.20;;;;;;5034368;28;19912;-82
2021/12/22 04:32:11;;;;;;;;;;;51.40;2227.20;;;;;;5034269;28;19988;-82
2021/12/22 04:34:36;;;;;;;;;;;51.50;2227.20;;;;;;5034417;28;19905;-81
2021/12/22 04:37:02;;;;;;;;;;;51.50;2227.20;;;;;;5034132;28;19978;-83
2021/12/22 04:39:32;;;;;;;;;;;51.70;2227.20;;;;;;5034405;28;19955;-82
2021/12/22 04:41:58;;;;;;;;;;;51.70;2227.20;;;;;;5033735;28;19909;-82
2021/12/22 04:44:23;;;;;;;;;;;51.70;2227.20;;;;;;5033921;28;19912;-82
2021/12/22 04:46:49;;;;;;;;;;;51.60;2227.20;;;;;;5019556;28;20370;-75
2021/12/22 04:49:15;;;;;;;;;;;51.50;2227.20;;;;;;5024081;28;19905;-83
2021/12/22 04:51:48;;;;;;;;;;;51.30;2227.20;;;;;;5036373;28;19912;-83
2021/12/22 04:54:31;;;;;;;;;;;26.40;2201.60;;;;;;5033743;28;19916;-81
2021/12/22 04:56:57;;;;;;;;;;;26.40;2201.60;;;;;;5016159;28;20392;-74
2021/12/22 04:59:23;;;;;;;;;;;26.20;2201.60;;;;;;5034132;28;19905;-82
2021/12/22 05:01:48;;;;;;;;;;;26.40;2201.60;;;;;;5033758;28;20366;-82
2021/12/22 05:04:14;;;;;;;;;;;51.20;2227.20;;;;;;5034006;28;19932;-82
2021/12/22 05:06:40;;;;;;;;;;;51.60;2227.20;;;;;;5033928;28;20309;-82
2021/12/22 05:09:06;;;;;;;;;;;26.20;2201.60;;;;;;5034073;28;20358;-82
2021/12/22 05:11:32;;;;;;;;;;;26.30;2201.60;;;;;;5019351;28;20362;-81
2021/12/22 05:13:57;;;;;;;;;;;51.20;2227.20;;;;;;5053994;28;19904;-82
2021/12/22 05:16:23;;;;;;;;;;;26.50;2201.60;;;;;;5053702;28;19908;-82
2021/12/22 05:18:58;;;;;;;;;;;26.50;2201.60;;;;;;5053794;28;19905;-81
2021/12/22 05:21:24;;;;;;;;;;;51.20;2227.20;;;;;;5035639;28;19953;-82
2021/12/22 05:23:56;;;;;;;;;;;51.40;2227.20;;;;;;5053056;28;19908;-81
2021/12/22 05:26:22;;;;;;;;;;;51.50;2227.20;;;;;;5053624;28;19908;-80
2021/12/22 05:28:48;;;;;;;;;;;51.20;2227.20;;;;;;5053344;28;19905;-74
2021/12/22 05:31:13;;;;;;;;;;;51.60;2227.20;;;;;;5053516;28;19951;-81
2021/12/22 05:33:39;;;;;;;;;;;51.30;2227.20;;;;;;5053379;28;19909;-81
2021/12/22 05:36:05;;;;;;;;;;;51.20;2227.20;;;;;;5052751;28;20358;-74
2021/12/22 05:38:30;;;;;;;;;;;51.40;2227.20;;;;;;5053194;28;20384;-81
2021/12/22 05:40:56;;;;;;;;;;;51.40;2227.20;;;;;;5053199;28;19912;-75
2021/12/22 05:43:22;;;;;;;;;;;51.50;2227.20;;;;;;5035592;28;19928;-82
2021/12/22 05:45:47;;;;;;;;;;;51.70;2227.20;;;;;;5053098;28;19912;-81
2021/12/22 05:48:13;;;;;;;;;;;51.80;2227.20;;;;;;5053310;28;20346;-81
2021/12/22 05:50:38;;;;;;;;;;;51.80;2227.20;;;;;;5035379;28;19912;-82
2021/12/22 05:53:04;;;;;;;;;;;51.90;2227.20;;;;;;5052959;28;19913;-80
2021/12/22 05:55:30;;;;;;;;;;;52.00;2227.20;;;;;;5053115;28;19909;-81
2021/12/22 05:57:55;;;;;;;;;;;52.00;2227.20;;;;;;5053098;28;19912;-81
2021/12/22 06:00:22;;;;;;;;;;;52.10;2227.20;;;;;;5052996;28;19972;-81
2021/12/22 06:02:48;;;;;;;;;;;52.10;2227.20;;;;;;5035521;28;20281;-81
2021/12/22 06:05:14;;;;;;;;;;;52.10;2227.20;;;;;;5052989;28;19904;-81
2021/12/22 06:07:39;;;;;;;;;;;52.00;2227.20;;;;;;5053045;28;19904;-81
2021/12/22 06:10:06;;;;;;;;;;;51.90;2227.20;;;;;;5052909;28;19978;-81
2021/12/22 06:12:32;;;;;;;;;;;51.70;2227.20;;;;;;5035193;28;19924;-79
2021/12/22 06:14:57;;;;;;;;;;;51.60;2227.20;;;;;;5052804;28;19905;-81
2021/12/22 06:17:24;;;;;;;;;;;51.70;2227.20;;;;;;5053149;28;19905;-81
2021/12/22 06:19:50;;;;;;;;;;;51.60;2227.20;;;;;;5052868;28;20365;-80
2021/12/22 06:22:16;;;;;;;;;;;51.80;2227.20;;;;;;5052728;28;19958;-80
2021/12/22 06:24:42;;;;;;;;;;;51.80;2227.20;;;;;;5053094;28;19995;-80
2021/12/22 06:27:08;;;;;;;;;;;51.90;2227.20;;;;;;5052435;28;19940;-83
2021/12/22 06:29:33;;;;;;;;;;;52.00;2227.20;;;;;;5052860;28;19905;-82
2021/12/22 06:31:59;;;;;;;;;;;51.90;2227.20;;;;;;5052803;28;19909;-82
2021/12/22 06:34:24;;;;;;;;;;;51.80;2227.20;;;;;;5035206;28;19912;-77
2021/12/22 06:36:50;;;;;;;;;;;51.60;2227.20;;;;;;5068189;28;19915;-79
2021/12/22 06:39:17;;;;;;;;;;;51.70;2227.20;;;;;;5052854;28;20337;-77
2021/12/22 06:41:43;;;;;;;;;;;51.80;2227.20;;;;;;5052540;28;19913;-78
2021/12/22 06:44:09;;;;;;;;;;;51.80;2227.20;;;;;;5068127;28;19912;-80
2021/12/22 06:46:34;;;;;;;;;;;51.90;2227.20;;;;;;5052846;28;20285;-77
2021/12/22 06:49:00;;;;;;;;;;;51.90;2227.20;;;;;;5037012;28;19963;-81
2021/12/22 06:51:25;;;;;;;;;;;51.90;2227.20;;;;;;5056071;28;19905;-78
2021/12/22 06:53:51;;;;;;;;;;;77.60;2227.20;;;;;;5056030;28;19909;-82
2021/12/22 06:56:17;;;;;;;;;;;51.60;2227.20;;;;;;5038478;28;19956;-81
2021/12/22 06:58:42;;;;;;;;;;;51.70;2227.20;;;;;;5055881;28;20353;-81
2021/12/22 07:01:08;;;;;;;;;;;51.80;2227.20;;;;;;5056086;28;19917;-81
2021/12/22 07:03:33;;;;;;;;;;;51.80;2227.20;;;;;;5056099;28;19952;-83
2021/12/22 07:05:59;;;;;;;;;;;51.70;2227.20;;;;;;5055942;28;19940;-74
2021/12/22 07:08:24;;;;;;;;;;;51.70;2227.20;;;;;;5055733;28;19909;-78
2021/12/22 07:10:50;;;;;;;;;;;51.60;2227.20;;;;;;5055429;28;20063;-82
2021/12/22 07:13:16;;;;;;;;;;;51.50;2227.20;;;;;;5056126;28;19924;-83
2021/12/22 07:15:43;;;;;;;;;;;51.50;2227.20;;;;;;5055395;28;19912;-79
2021/12/22 07:18:10;;;;;;;;;;;51.50;2227.20;;;;;;5037742;28;19993;-85
2021/12/22 07:20:36;;;;;;;;;;;51.50;2227.20;;;;;;5055460;28;19971;-81
2021/12/22 07:23:01;;;;;;;;;;;51.60;2227.20;;;;;;5055733;28;19909;-81
2021/12/22 07:25:27;;;;;;;;;;;51.80;2227.20;;;;;;5055266;28;20273;-80
2021/12/22 07:27:53;;;;;;;;;;;51.80;2227.20;;;;;;5055738;28;19905;-81
2021/12/22 07:30:18;;;;;;;;;;;51.90;2227.20;;;;;;5037472;28;19915;-80
2021/12/22 07:32:44;;;;;;;;;;;52.00;2227.20;;;;;;5055034;28;20365;-80
2021/12/22 07:35:21;;;;;;;;;;;52.10;2227.20;;;;;;5054935;28;19905;-79
2021/12/22 07:37:47;;;;;;;;;;;52.00;2227.20;;;;;;5055017;28;19905;-77
2021/12/22 07:40:14;;;;;;;;;;;52.00;2227.20;;;;;;5054805;28;19909;-78
2021/12/22 07:42:40;;;;;;;;;;;52.00;2227.20;;;;;;5054770;28;19988;-81
2021/12/22 07:45:06;;;;;;;;;;;51.90;2227.20;;;;;;5055075;28;20368;-81
2021/12/22 07:47:32;;;;;;;;;;;52.00;2227.20;;;;;;5037207;28;19908;-79
2021/12/22 07:49:58;;;;;;;;;;;52.10;2227.20;;;;;;5055021;28;19973;-78
2021/12/22 07:52:27;;;;;;;;;;;52.10;2227.20;;;;;;5054948;28;19909;-79
2021/12/22 07:54:55;;;;;;;;;;;52.10;2227.20;;;;;;5037437;28;20288;-75
2021/12/22 07:57:21;;;;;;;;;;;76.80;2227.20;;;;;;5054667;28;19912;-81
2021/12/22 07:59:47;;;;;;;;;;;76.80;2227.20;;;;;;5054666;28;19905;-80
2021/12/22 08:02:12;;;;;;;;;;;76.80;2227.20;;;;;;5037097;28;20322;-76
2021/12/22 08:04:38;;;;;;;;;;;52.10;2227.20;;;;;;5054387;28;19940;-76
2021/12/22 08:07:04;;;;;;;;;;;76.80;2227.20;;;;;;5037080;28;19909;-80
2021/12/22 08:09:30;;;;;;;;;;;76.80;2227.20;;;;;;5054457;28;19950;-75
2021/12/22 08:11:59;;;;;;;;;;;76.80;2227.20;;;;;;5036686;28;20401;-75
2021/12/22 08:14:24;;;;;;;;;;;76.90;2227.20;;;;;;5036092;28;19909;-76
2021/12/22 08:16:51;;;;;;;;;;;77.00;2227.20;;;;;;5036810;28;19911;-76
2021/12/22 08:19:16;;;;;;;;;;;77.00;2227.20;;;;;;5036234;28;19905;-78
2021/12/22 08:21:44;;;;;;;;;;;76.90;2227.20;;;;;;5053864;28;20042;-78
2021/12/22 08:24:10;;;;;;;;;;;77.00;2227.20;;;;;;5036671;28;19955;-81
2021/12/22 08:26:35;;;;;;;;;;;77.00;2227.20;;;;;;5054229;28;19905;-77
2021/12/22 08:29:01;;;;;;;;;;;77.00;2227.20;;;;;;5036330;28;19929;-81
2021/12/22 08:31:26;;;;;;;;;;;77.00;2227.20;;;;;;5053887;28;19999;-80
2021/12/22 08:33:54;;;;;;;;;;;77.00;2227.20;;;;;;5053937;28;20277;-79
2021/12/22 08:39:06;;;;;;;;;;;77.20;2227.20;;;;;;5054415;28;19997;-79
2021/12/22 08:41:33;;;;;;;;;;;77.10;2227.20;;;;;;5053736;28;19947;-75
2021/12/22 08:44:01;;;;;;;;;;;77.10;2227.20;;;;;;5053793;28;19905;-78
2021/12/22 08:46:27;;;;;;;;;;;77.10;2227.20;;;;;;5036333;28;19911;-80
2021/12/22 08:48:53;;;;;;;;;;;77.10;2227.20;;;;;;5053501;28;19905;-80
2021/12/22 08:51:18;;;;;;;;;;;77.20;2227.20;;;;;;5054001;28;20396;-81
2021/12/22 08:53:44;;;;;;;;;;;77.20;2227.20;;;;;;5053221;28;19912;-75
2021/12/22 08:56:09;;;;;;;;;;;77.10;2227.20;;;;;;5053742;28;20425;-75
2021/12/22 08:58:35;;;;;;;;;;;77.10;2227.20;;;;;;5037795;28;19912;-74
2021/12/22 09:01:01;;;;;;;;;;;77.20;2227.20;;;;;;5063889;28;19919;-76
2021/12/22 09:03:27;;;;;;;;;;;77.20;2227.20;;;;;;5065554;28;19919;-79
2021/12/22 09:05:53;;;;;;;;;;;77.30;2227.20;;;;;;5061949;28;19912;-83
2021/12/22 09:08:20;;;;;;;;;;;77.30;2227.20;;;;;;5036059;28;19904;-85
2021/12/22 09:10:45;;;;;;;;;;;77.40;2227.20;;;;;;5052840;28;20378;-81
2021/12/22 09:13:13;;;;;;;;;;;77.20;2227.20;;;;;;5052734;28;19917;-80
2021/12/22 09:15:39;;;;;;;;;;;77.40;2227.20;;;;;;5052465;28;20390;-86
2021/12/22 09:18:04;;;;;;;;;;;77.40;2227.20;;;;;;5029911;28;19908;-86
2021/12/22 09:20:30;;;;;;;;;;;77.40;2227.20;;;;;;5052697;28;19986;-80
2021/12/22 09:22:55;;;;;;;;;;;77.60;2227.20;;;;;;5053045;28;19908;-83
2021/12/22 09:25:21;;;;;;;;;;;77.70;2227.20;;;;;;5053461;28;19936;-84
2021/12/22 09:27:47;;;;;;;;;;;77.70;2227.20;;;;;;5035117;28;19999;-81
2021/12/22 09:30:12;;;;;;;;;;;102.40;2227.20;;;;;;5052160;28;19904;-81
2021/12/22 09:32:38;;;;;;;;;;;102.50;2227.20;;;;;;5052661;28;19950;-83
2021/12/22 09:35:04;;;;;;;;;;;102.70;2227.20;;;;;;5035579;28;19912;-81
2021/12/22 09:37:30;;;;;;;;;;;102.80;2227.20;;;;;;5035350;28;19947;-81
2021/12/22 09:39:56;;;;;;;;;;;103.00;2227.20;;;;;;5053281;28;19952;-82
2021/12/22 09:42:21;;;;;;;;;;;103.20;2227.20;;;;;;5053180;28;20069;-80
2021/12/22 09:44:47;;;;;;;;;;;103.20;2227.20;;;;;;5053025;28;19905;-79
2021/12/22 09:47:15;;;;;;;;;;;128.00;2252.80;;;;;;5035319;28;19905;-82
2021/12/22 09:52:18;;;;;;;;;;;128.40;2252.80;;;;;;5052922;28;20259;-79
2021/12/22 09:54:45;;;;;;;;;;;128.40;2252.80;;;;;;5035124;28;19913;-79
2021/12/22 09:57:11;;;;;;;;;;;128.60;2252.80;;;;;;5053246;28;19905;-79
2021/12/22 09:59:37;;;;;;;;;;;128.40;2252.80;;;;;;5052867;28;20360;-83
2021/12/22 10:02:03;;;;;;;;;;;128.70;2252.80;;;;;;5035811;28;20015;-79
2021/12/22 10:04:28;;;;;;;;;;;153.60;2252.80;;;;;;5052535;28;20338;-82
2021/12/22 10:06:54;;;;;;;;;;;153.70;2252.80;;;;;;5034287;28;19908;-81
2021/12/22 10:09:23;;;;;;;;;;;153.80;2252.80;;;;;;5052169;28;19919;-84
2021/12/22 10:11:49;;;;;;;;;;;153.90;2252.80;;;;;;5035218;28;20265;-82
2021/12/22 10:14:16;;;;;;;;;;;153.90;2252.80;;;;;;5035050;28;19909;-82
2021/12/22 10:16:47;;;;;;;;;;;154.00;2252.80;;;;;;5035048;28;19905;-85
2021/12/22 10:19:15;;;;;;;;;;;154.10;2252.80;;;;;;5034945;28;19905;-84
2021/12/22 10:21:53;;;;;;;;;;;154.30;2252.80;;;;;;5052882;28;20282;-87
2021/12/22 10:24:19;;;;;;;;;;;154.40;2252.80;;;;;;5039167;28;20011;-87
2021/12/22 10:26:45;;;;;;;;;;;154.20;2252.80;;;;;;5038776;28;19909;-85
2021/12/22 10:29:11;;;;;;;;;;;154.40;2252.80;;;;;;5056509;28;19958;-81
2021/12/22 10:31:36;;;;;;;;;;;154.50;2252.80;;;;;;5056034;28;19908;-84
2021/12/22 10:34:06;;;;;;;;;;;179.20;2252.80;;;;;;5035935;28;19999;-78
2021/12/22 10:36:42;;;;;;;;;;;179.40;2252.80;;;;;;5038885;28;19927;-83
2021/12/22 10:39:15;;;;;;;;;;;179.20;2252.80;;;;;;5046453;28;20282;-81
2021/12/22 10:41:40;;;;;;;;;;;179.30;2252.80;;;;;;5018921;28;19966;-82
2021/12/22 10:44:07;;;;;;;;;;;179.50;2252.80;;;;;;5035791;28;19992;-80
2021/12/22 10:46:35;;;;;;;;;;;179.70;2201.60;;;;;;5036317;28;19906;-80
2021/12/22 10:49:17;;;;;;;;;;;179.60;2150.40;;;;;;5036409;28;19936;-79
2021/12/22 10:51:44;;;;;;;;;;;179.90;2124.80;;;;;;5035960;28;19909;-79
2021/12/22 10:54:12;;;;;;;;;;;180.00;2150.40;;;;;;5036033;28;19913;-78
2021/12/22 10:56:39;;;;;;;;;;;180.00;2099.20;;;;;;5018202;28;20279;-81
2021/12/22 10:59:07;;;;;;;;;;;180.10;2099.20;;;;;;5018707;28;19905;-77
2021/12/22 11:01:36;;;;;;;;;;;180.00;2073.60;;;;;;5035859;28;19920;-76
2021/12/22 11:04:06;;;;;;;;;;;180.10;2048.00;;;;;;5017963;28;19910;-78
2021/12/22 11:06:33;;;;;;;;;;;180.10;2022.40;;;;;;5035968;28;19963;-79
2021/12/22 11:08:59;;;;;;;;;;;180.00;2048.00;;;;;;5038888;28;19904;-80
2021/12/22 11:11:29;;;;;;;;;;;180.10;2022.40;;;;;;5027565;28;20405;-81
2021/12/22 11:14:04;;;;;;;;;;;179.80;1996.80;;;;;;5043431;28;19983;-81
2021/12/22 11:16:29;;;;;;;;;;;179.70;1996.80;;;;;;5044435;28;19904;-78
2021/12/22 11:19:06;;;;;;;;;;;179.70;1996.80;;;;;;5027961;28;19912;-80
2021/12/22 11:21:34;;;;;;;;;;;179.80;1996.80;;;;;;5025396;28;19916;-78
2021/12/22 11:24:00;;;;;;;;;;;179.80;1996.80;;;;;;5045550;28;20012;-78
2021/12/22 11:26:26;;;;;;;;;;;179.70;1996.80;;;;;;5040312;28;19948;-79
2021/12/22 11:28:51;;;;;;;;;;;179.80;1971.20;;;;;;5024113;28;19909;-79
2021/12/22 11:31:17;;;;;;;;;;;179.80;1971.20;;;;;;5042777;28;19908;-78
2021/12/22 11:33:44;;;;;;;;;;;180.00;1945.60;;;;;;5044739;28;20329;-77
2021/12/22 11:36:12;;;;;;;;;;;180.00;1920.00;;;;;;5044899;28;19909;-76
2021/12/22 11:38:38;;;;;;;;;;;180.00;1894.40;;;;;;5043374;28;19950;-77
2021/12/22 11:43:36;;;;;;;;;;;179.70;1920.00;;;;;;5042485;28;19917;-78
2021/12/22 11:46:02;;;;;;;;;;;179.60;1920.00;;;;;;5033364;28;19999;-78
2021/12/22 11:48:28;;;;;;;;;;;179.30;1971.20;;;;;;5033470;28;19905;-79
2021/12/22 11:50:54;;;;;;;;;;;179.60;1971.20;;;;;;5033705;28;19920;-77
2021/12/22 11:53:19;;;;;;;;;;;179.50;1971.20;;;;;;5033279;28;20009;-80
2021/12/22 11:55:47;;;;;;;;;;;179.50;1996.80;;;;;;5033611;28;19909;-78
2021/12/22 11:58:17;;;;;;;;;;;179.30;2022.40;;;;;;5015418;28;20384;-80
2021/12/22 12:00:47;;;;;;;;;;;179.40;1996.80;;;;;;5013501;28;19917;-79
2021/12/22 12:03:20;;;;;;;;;;;154.30;2048.00;;;;;;5034067;28;19905;-80
2021/12/22 12:06:06;;;;;;;;;;;154.50;2022.40;;;;;;5033306;28;19920;-81
2021/12/22 12:08:35;;;;;;;;;;;179.30;2048.00;;;;;;5029955;28;20525;-80
2021/12/22 12:11:01;;;;;;;;;;;154.20;2073.60;;;;;;5031861;28;19959;-76
2021/12/22 12:13:36;;;;;;;;;;;154.10;2022.40;;;;;;5034036;28;19921;-80
2021/12/22 12:21:48;;;;;;;;;;;153.90;1996.80;;;;;;5031476;28;19928;-81
2021/12/22 12:24:32;;;;;;;;;;;153.80;1996.80;;;;;;5033011;28;20110;-80
2021/12/22 12:26:59;;;;;;;;;;;153.70;2022.40;;;;;;5033064;28;19912;-79
2021/12/22 12:29:43;;;;;;;;;;;128.90;2048.00;;;;;;5032735;28;19912;-80
2021/12/22 12:32:08;;;;;;;;;;;153.60;2048.00;;;;;;5028733;28;19905;-75
2021/12/22 12:34:38;;;;;;;;;;;128.80;2048.00;;;;;;5032904;28;19920;-81
2021/12/22 12:37:06;;;;;;;;;;;128.80;2048.00;;;;;;5033012;28;19927;-80
2021/12/22 12:39:50;;;;;;;;;;;128.60;2048.00;;;;;;5033059;28;19913;-80
2021/12/22 12:42:15;;;;;;;;;;;128.50;2099.20;;;;;;5030947;28;19913;-78
2021/12/22 12:44:41;;;;;;;;;;;128.80;2073.60;;;;;;5023310;28;19909;-77
2021/12/22 12:47:16;;;;;;;;;;;128.80;2022.40;;;;;;4997956;28;19905;-78
2021/12/22 12:49:44;;;;;;;;;;;128.70;1996.80;;;;;;5037838;28;19905;-79
2021/12/22 12:52:17;;;;;;;;;;;128.50;1996.80;;;;;;5015878;28;19940;-80
2021/12/22 12:54:45;;;;;;;;;;;128.50;1996.80;;;;;;5039510;28;19936;-79
2021/12/22 12:57:13;;;;;;;;;;;128.60;1996.80;;;;;;5043805;28;20362;-83
2021/12/22 12:59:39;;;;;;;;;;;128.30;1996.80;;;;;;5044316;28;19909;-82
2021/12/22 13:02:06;;;;;;;;;;;128.20;2022.40;;;;;;5041292;28;19927;-79
2021/12/22 13:04:33;;;;;;;;;;;128.20;2048.00;;;;;;5030046;28;19928;-82
2021/12/22 13:07:06;;;;;;;;;;;128.40;2073.60;;;;;;5037258;28;19909;-81
2021/12/22 13:09:40;;;;;;;;;;;128.40;2022.40;;;;;;5033772;28;19909;-81
2021/12/22 13:17:28;;;;;;;;;;;128.40;2022.40;;;;;;5053400;28;20324;-80
2021/12/22 13:19:55;;;;;;;;;;;128.20;2022.40;;;;;;5035202;28;19912;-74
2021/12/22 13:22:29;;;;;;;;;;;128.40;2048.00;;;;;;5053196;28;20000;-77
2021/12/22 13:25:08;;;;;;;;;;;128.50;2048.00;;;;;;5053106;28;19971;-77
2021/12/22 13:27:34;;;;;;;;;;;128.70;2048.00;;;;;;5053177;28;19951;-77
2021/12/22 13:30:19;;;;;;;;;;;128.40;2099.20;;;;;;5053143;28;19958;-78
2021/12/22 13:33:03;;;;;;;;;;;128.80;2073.60;;;;;;5052025;28;19911;-79
2021/12/22 13:35:28;;;;;;;;;;;128.90;2048.00;;;;;;5035212;28;20002;-75
2021/12/22 13:37:54;;;;;;;;;;;128.80;2048.00;;;;;;5053286;28;19905;-78
2021/12/22 13:40:35;;;;;;;;;;;128.80;2022.40;;;;;;5052953;28;19916;-78
2021/12/22 13:43:00;;;;;;;;;;;128.40;2073.60;;;;;;5052740;28;19991;-76
2021/12/22 13:45:26;;;;;;;;;;;128.20;2099.20;;;;;;5052696;28;19955;-78
2021/12/22 13:47:51;;;;;;;;;;;128.40;2099.20;;;;;;5052800;28;19905;-76
2021/12/22 13:50:17;;;;;;;;;;;128.50;2073.60;;;;;;5053061;28;20004;-76
2021/12/22 13:52:43;;;;;;;;;;;128.50;2048.00;;;;;;5034870;28;20317;-78
2021/12/22 13:55:08;;;;;;;;;;;128.70;2048.00;;;;;;5052941;28;19947;-77
2021/12/22 13:57:35;;;;;;;;;;;128.70;2048.00;;;;;;5059207;28;19960;-78
2021/12/22 14:00:01;;;;;;;;;;;128.80;2022.40;;;;;;5067919;28;20367;-77
2021/12/22 14:02:33;;;;;;;;;;;128.60;2022.40;;;;;;5045654;28;20003;-78
2021/12/22 14:05:13;;;;;;;;;;;128.80;2048.00;;;;;;5065403;28;19908;-78
2021/12/22 14:07:39;;;;;;;;;;;128.80;2022.40;;;;;;5065461;28;19905;-78
2021/12/22 14:10:08;;;;;;;;;;;128.50;2022.40;;;;;;5046684;28;20305;-79
2021/12/22 14:12:34;;;;;;;;;;;128.40;2022.40;;;;;;5047646;28;20011;-78
2021/12/22 14:15:00;;;;;;;;;;;128.50;2048.00;;;;;;5066106;28;20358;-78
2021/12/22 14:17:31;;;;;;;;;;;128.50;2022.40;;;;;;5064076;28;19917;-78
2021/12/22 14:19:58;;;;;;;;;;;128.60;2048.00;;;;;;5038907;28;19905;-78
2021/12/22 14:22:27;;;;;;;;;;;128.50;2073.60;;;;;;5049633;28;20406;-78
2021/12/22 14:25:05;;;;;;;;;;;128.60;2048.00;;;;;;5049815;28;19913;-76
2021/12/22 14:27:33;;;;;;;;;;;128.70;2073.60;;;;;;5046600;28;19959;-78